sensor_id;sensor_type;location;lat;lon;timestamp;temperature;humidity
47168;DHT22;32931;47.778;17.806;2024-01-06T00:02:06;9.40;99.90
47168;DHT22;32931;47.778;17.806;2024-01-06T00:04:32;9.40;99.90
47168;DHT22;32931;47.778;17.806;2024-01-06T00:06:58;9.30;99.90
47168;DHT22;32931;47.778;17.806;2024-01-06T00:09:25;9.30;99.90
47168;DHT22;32931;47.778;17.806;2024-01-06T00:11:51;9.30;99.90
47168;DHT22;32931;47.778;17.806;2024-01-06T00:14:17;9.20;99.90
47168;DHT22;32931;47.778;17.806;2024-01-06T00:16:43;9.20;99.90
47168;DHT22;32931;47.778;17.806;2024-01-06T00:19:09;9.20;99.90
47168;DHT22;32931;47.778;17.806;2024-01-06T00:21:35;9.10;99.90
47168;DHT22;32931;47.778;17.806;2024-01-06T00:24:01;9.10;99.90
47168;DHT22;32931;47.778;17.806;2024-01-06T00:26:27;9.10;99.90
47168;DHT22;32931;47.778;17.806;2024-01-06T00:28:54;9.00;99.90
47168;DHT22;32931;47.778;17.806;2024-01-06T00:31:20;9.00;99.90
47168;DHT22;32931;47.778;17.806;2024-01-06T00:33:46;9.00;99.90
47168;DHT22;32931;47.778;17.806;2024-01-06T00:36:12;8.90;99.90
47168;DHT22;32931;47.778;17.806;2024-01-06T00:38:38;8.90;99.90
47168;DHT22;32931;47.778;17.806;2024-01-06T00:41:04;8.80;99.90
47168;DHT22;32931;47.778;17.806;2024-01-06T00:43:31;8.70;99.90
47168;DHT22;32931;47.778;17.806;2024-01-06T00:45:57;8.70;99.90
47168;DHT22;32931;47.778;17.806;2024-01-06T00:48:23;8.70;99.90
47168;DHT22;32931;47.778;17.806;2024-01-06T00:50:49;8.60;99.90
47168;DHT22;32931;47.778;17.806;2024-01-06T00:53:15;8.60;99.90
47168;DHT22;32931;47.778;17.806;2024-01-06T00:55:41;8.60;99.90
47168;DHT22;32931;47.778;17.806;2024-01-06T00:58:07;8.60;99.90
47168;DHT22;32931;47.778;17.806;2024-01-06T01:00:34;8.60;99.90
47168;DHT22;32931;47.778;17.806;2024-01-06T01:03:00;8.60;99.90
47168;DHT22;32931;47.778;17.806;2024-01-06T01:05:26;8.60;99.90
47168;DHT22;32931;47.778;17.806;2024-01-06T01:07:52;8.60;99.90
47168;DHT22;32931;47.778;17.806;2024-01-06T01:10:19;8.60;99.90
47168;DHT22;32931;47.778;17.806;2024-01-06T01:12:45;8.70;99.90
47168;DHT22;32931;47.778;17.806;2024-01-06T01:15:11;8.70;99.90
47168;DHT22;32931;47.778;17.806;2024-01-06T01:17:37;8.70;99.90
47168;DHT22;32931;47.778;17.806;2024-01-06T01:20:03;8.70;99.90
47168;DHT22;32931;47.778;17.806;2024-01-06T01:22:30;8.70;99.90
47168;DHT22;32931;47.778;17.806;2024-01-06T01:24:56;8.70;99.90
47168;DHT22;32931;47.778;17.806;2024-01-06T01:27:22;8.70;99.90
47168;DHT22;32931;47.778;17.806;2024-01-06T01:29:49;8.70;99.90
47168;DHT22;32931;47.778;17.806;2024-01-06T01:32:18;8.70;99.90
47168;DHT22;32931;47.778;17.806;2024-01-06T01:34:45;8.70;99.90
47168;DHT22;32931;47.778;17.806;2024-01-06T01:37:11;8.70;99.90
47168;DHT22;32931;47.778;17.806;2024-01-06T01:39:37;8.70;99.90
47168;DHT22;32931;47.778;17.806;2024-01-06T01:42:03;8.70;99.90
47168;DHT22;32931;47.778;17.806;2024-01-06T01:44:29;8.70;99.90
47168;DHT22;32931;47.778;17.806;2024-01-06T01:46:56;8.70;99.90
47168;DHT22;32931;47.778;17.806;2024-01-06T01:49:22;8.70;99.90
47168;DHT22;32931;47.778;17.806;2024-01-06T01:51:49;8.70;99.90
47168;DHT22;32931;47.778;17.806;2024-01-06T01:54:15;8.70;99.90
47168;DHT22;32931;47.778;17.806;2024-01-06T01:56:42;8.70;99.90
47168;DHT22;32931;47.778;17.806;2024-01-06T01:59:11;8.80;99.90
47168;DHT22;32931;47.778;17.806;2024-01-06T02:01:41;8.70;99.90
47168;DHT22;32931;47.778;17.806;2024-01-06T02:04:08;8.80;99.90
47168;DHT22;32931;47.778;17.806;2024-01-06T02:06:35;8.80;99.90
47168;DHT22;32931;47.778;17.806;2024-01-06T02:09:01;8.80;99.90
47168;DHT22;32931;47.778;17.806;2024-01-06T02:11:27;8.80;99.90
47168;DHT22;32931;47.778;17.806;2024-01-06T02:13:53;8.80;99.90
47168;DHT22;32931;47.778;17.806;2024-01-06T02:16:20;8.80;99.90
47168;DHT22;32931;47.778;17.806;2024-01-06T02:18:46;8.80;99.90
47168;DHT22;32931;47.778;17.806;2024-01-06T02:21:13;8.80;99.90
47168;DHT22;32931;47.778;17.806;2024-01-06T02:23:39;8.80;99.90
47168;DHT22;32931;47.778;17.806;2024-01-06T02:26:05;8.80;99.90
47168;DHT22;32931;47.778;17.806;2024-01-06T02:28:31;8.80;99.90
47168;DHT22;32931;47.778;17.806;2024-01-06T02:30:57;8.80;99.90
47168;DHT22;32931;47.778;17.806;2024-01-06T02:33:24;8.80;99.90
47168;DHT22;32931;47.778;17.806;2024-01-06T02:35:50;8.80;99.90
47168;DHT22;32931;47.778;17.806;2024-01-06T02:38:16;8.80;99.90
47168;DHT22;32931;47.778;17.806;2024-01-06T02:40:43;8.80;99.90
47168;DHT22;32931;47.778;17.806;2024-01-06T02:43:09;8.70;99.90
47168;DHT22;32931;47.778;17.806;2024-01-06T02:45:35;8.70;99.90
47168;DHT22;32931;47.778;17.806;2024-01-06T02:48:02;8.70;99.90
47168;DHT22;32931;47.778;17.806;2024-01-06T02:50:28;8.70;99.90
47168;DHT22;32931;47.778;17.806;2024-01-06T02:52:54;8.70;99.90
47168;DHT22;32931;47.778;17.806;2024-01-06T02:55:20;8.70;99.90
47168;DHT22;32931;47.778;17.806;2024-01-06T02:57:46;8.70;99.90
47168;DHT22;32931;47.778;17.806;2024-01-06T03:00:13;8.70;99.90
47168;DHT22;32931;47.778;17.806;2024-01-06T03:02:39;8.70;99.90
47168;DHT22;32931;47.778;17.806;2024-01-06T03:05:08;8.70;99.90
47168;DHT22;32931;47.778;17.806;2024-01-06T03:07:34;8.70;99.90
47168;DHT22;32931;47.778;17.806;2024-01-06T03:10:01;8.70;99.90
47168;DHT22;32931;47.778;17.806;2024-01-06T03:12:27;8.70;99.90
47168;DHT22;32931;47.778;17.806;2024-01-06T03:14:53;8.60;99.90
47168;DHT22;32931;47.778;17.806;2024-01-06T03:17:19;8.60;99.90
47168;DHT22;32931;47.778;17.806;2024-01-06T03:19:45;8.60;99.90
47168;DHT22;32931;47.778;17.806;2024-01-06T03:22:11;8.60;99.90
47168;DHT22;32931;47.778;17.806;2024-01-06T03:24:37;8.60;99.90
47168;DHT22;32931;47.778;17.806;2024-01-06T03:27:03;8.60;99.90
47168;DHT22;32931;47.778;17.806;2024-01-06T03:29:30;8.60;99.90
47168;DHT22;32931;47.778;17.806;2024-01-06T03:31:56;8.70;99.90
47168;DHT22;32931;47.778;17.806;2024-01-06T03:34:22;8.70;99.90
47168;DHT22;32931;47.778;17.806;2024-01-06T03:36:48;8.60;99.90
47168;DHT22;32931;47.778;17.806;2024-01-06T03:39:14;8.60;99.90
47168;DHT22;32931;47.778;17.806;2024-01-06T03:41:40;8.70;99.90
47168;DHT22;32931;47.778;17.806;2024-01-06T03:44:06;8.70;99.90
47168;DHT22;32931;47.778;17.806;2024-01-06T03:46:34;8.60;99.90
47168;DHT22;32931;47.778;17.806;2024-01-06T03:49:00;8.70;99.90
47168;DHT22;32931;47.778;17.806;2024-01-06T03:51:26;8.60;99.90
47168;DHT22;32931;47.778;17.806;2024-01-06T03:53:52;8.70;99.90
47168;DHT22;32931;47.778;17.806;2024-01-06T03:56:18;8.60;99.90
47168;DHT22;32931;47.778;17.806;2024-01-06T03:58:45;8.60;99.90
47168;DHT22;32931;47.778;17.806;2024-01-06T04:01:11;8.60;99.90
47168;DHT22;32931;47.778;17.806;2024-01-06T04:03:38;8.60;99.90
47168;DHT22;32931;47.778;17.806;2024-01-06T04:06:06;8.60;99.90
47168;DHT22;32931;47.778;17.806;2024-01-06T04:08:32;8.60;99.90
47168;DHT22;32931;47.778;17.806;2024-01-06T04:10:58;8.60;99.90
47168;DHT22;32931;47.778;17.806;2024-01-06T04:13:24;8.60;99.90
47168;DHT22;32931;47.778;17.806;2024-01-06T04:15:51;8.60;99.90
47168;DHT22;32931;47.778;17.806;2024-01-06T04:18:17;8.70;99.90
47168;DHT22;32931;47.778;17.806;2024-01-06T04:20:44;8.70;99.90
47168;DHT22;32931;47.778;17.806;2024-01-06T04:23:10;8.70;99.90
47168;DHT22;32931;47.778;17.806;2024-01-06T04:25:36;8.70;99.90
47168;DHT22;32931;47.778;17.806;2024-01-06T04:28:02;8.70;99.90
47168;DHT22;32931;47.778;17.806;2024-01-06T04:30:28;8.70;99.90
47168;DHT22;32931;47.778;17.806;2024-01-06T04:32:54;8.70;99.90
47168;DHT22;32931;47.778;17.806;2024-01-06T04:35:22;8.70;99.90
47168;DHT22;32931;47.778;17.806;2024-01-06T04:37:49;8.70;99.90
47168;DHT22;32931;47.778;17.806;2024-01-06T04:40:15;8.70;99.90
47168;DHT22;32931;47.778;17.806;2024-01-06T04:42:41;8.70;99.90
47168;DHT22;32931;47.778;17.806;2024-01-06T04:45:08;8.70;99.90
47168;DHT22;32931;47.778;17.806;2024-01-06T04:47:34;8.70;99.90
47168;DHT22;32931;47.778;17.806;2024-01-06T04:50:00;8.70;99.90
47168;DHT22;32931;47.778;17.806;2024-01-06T04:52:27;8.70;99.90
47168;DHT22;32931;47.778;17.806;2024-01-06T04:54:53;8.70;99.90
47168;DHT22;32931;47.778;17.806;2024-01-06T04:57:19;8.70;99.90
47168;DHT22;32931;47.778;17.806;2024-01-06T04:59:46;8.80;99.90
47168;DHT22;32931;47.778;17.806;2024-01-06T05:02:12;8.70;99.90
47168;DHT22;32931;47.778;17.806;2024-01-06T05:04:38;8.80;99.90
47168;DHT22;32931;47.778;17.806;2024-01-06T05:07:04;8.80;99.90
47168;DHT22;32931;47.778;17.806;2024-01-06T05:09:31;8.80;99.90
47168;DHT22;32931;47.778;17.806;2024-01-06T05:11:57;8.80;99.90
47168;DHT22;32931;47.778;17.806;2024-01-06T05:14:23;8.80;99.90
47168;DHT22;32931;47.778;17.806;2024-01-06T05:16:49;8.80;99.90
47168;DHT22;32931;47.778;17.806;2024-01-06T05:19:15;8.80;99.90
47168;DHT22;32931;47.778;17.806;2024-01-06T05:21:47;8.80;99.90
47168;DHT22;32931;47.778;17.806;2024-01-06T05:24:13;8.80;99.90
47168;DHT22;32931;47.778;17.806;2024-01-06T05:26:39;8.80;99.90
47168;DHT22;32931;47.778;17.806;2024-01-06T05:29:06;8.80;99.90
47168;DHT22;32931;47.778;17.806;2024-01-06T05:31:32;8.80;99.90
47168;DHT22;32931;47.778;17.806;2024-01-06T05:33:58;8.80;99.90
47168;DHT22;32931;47.778;17.806;2024-01-06T05:36:24;8.80;99.90
47168;DHT22;32931;47.778;17.806;2024-01-06T05:38:51;8.80;99.90
47168;DHT22;32931;47.778;17.806;2024-01-06T05:41:17;8.80;99.90
47168;DHT22;32931;47.778;17.806;2024-01-06T05:43:43;8.80;99.90
47168;DHT22;32931;47.778;17.806;2024-01-06T05:46:09;8.80;99.90
47168;DHT22;32931;47.778;17.806;2024-01-06T05:48:36;8.70;99.90
47168;DHT22;32931;47.778;17.806;2024-01-06T05:51:05;8.80;99.90
47168;DHT22;32931;47.778;17.806;2024-01-06T05:53:32;8.80;99.90
47168;DHT22;32931;47.778;17.806;2024-01-06T05:55:58;8.70;99.90
47168;DHT22;32931;47.778;17.806;2024-01-06T05:58:24;8.70;99.90
47168;DHT22;32931;47.778;17.806;2024-01-06T06:00:50;8.70;99.90
47168;DHT22;32931;47.778;17.806;2024-01-06T06:03:17;8.70;99.90
47168;DHT22;32931;47.778;17.806;2024-01-06T06:05:43;8.70;99.90
47168;DHT22;32931;47.778;17.806;2024-01-06T06:08:09;8.70;99.90
47168;DHT22;32931;47.778;17.806;2024-01-06T06:10:35;8.70;99.90
47168;DHT22;32931;47.778;17.806;2024-01-06T06:13:17;8.70;99.90
47168;DHT22;32931;47.778;17.806;2024-01-06T06:15:43;8.70;99.90
47168;DHT22;32931;47.778;17.806;2024-01-06T06:18:09;8.70;99.90
47168;DHT22;32931;47.778;17.806;2024-01-06T06:20:35;8.60;99.90
47168;DHT22;32931;47.778;17.806;2024-01-06T06:23:02;8.60;99.90
47168;DHT22;32931;47.778;17.806;2024-01-06T06:25:28;8.60;99.90
47168;DHT22;32931;47.778;17.806;2024-01-06T06:27:54;8.70;99.90
47168;DHT22;32931;47.778;17.806;2024-01-06T06:30:20;8.70;99.90
47168;DHT22;32931;47.778;17.806;2024-01-06T06:32:46;8.70;99.90
47168;DHT22;32931;47.778;17.806;2024-01-06T06:35:13;8.70;99.90
47168;DHT22;32931;47.778;17.806;2024-01-06T06:37:39;8.70;99.90
47168;DHT22;32931;47.778;17.806;2024-01-06T06:40:06;8.70;99.90
47168;DHT22;32931;47.778;17.806;2024-01-06T06:42:32;8.70;99.90
47168;DHT22;32931;47.778;17.806;2024-01-06T06:44:58;8.70;99.90
47168;DHT22;32931;47.778;17.806;2024-01-06T06:47:24;8.70;99.90
47168;DHT22;32931;47.778;17.806;2024-01-06T06:49:50;8.70;99.90
47168;DHT22;32931;47.778;17.806;2024-01-06T06:52:17;8.70;99.90
47168;DHT22;32931;47.778;17.806;2024-01-06T06:54:43;8.70;99.90
47168;DHT22;32931;47.778;17.806;2024-01-06T06:57:09;8.70;99.90
47168;DHT22;32931;47.778;17.806;2024-01-06T06:59:35;8.70;99.90
47168;DHT22;32931;47.778;17.806;2024-01-06T07:02:02;8.80;99.90
47168;DHT22;32931;47.778;17.806;2024-01-06T07:04:28;8.70;99.90
47168;DHT22;32931;47.778;17.806;2024-01-06T07:06:54;8.80;99.90
47168;DHT22;32931;47.778;17.806;2024-01-06T07:09:20;8.80;99.90
47168;DHT22;32931;47.778;17.806;2024-01-06T07:11:49;8.80;99.90
47168;DHT22;32931;47.778;17.806;2024-01-06T07:14:16;8.80;99.90
47168;DHT22;32931;47.778;17.806;2024-01-06T07:16:42;8.80;99.90
47168;DHT22;32931;47.778;17.806;2024-01-06T07:19:08;8.80;99.90
47168;DHT22;32931;47.778;17.806;2024-01-06T07:21:34;8.80;99.90
47168;DHT22;32931;47.778;17.806;2024-01-06T07:24:00;8.80;99.90
47168;DHT22;32931;47.778;17.806;2024-01-06T07:26:27;8.80;99.90
47168;DHT22;32931;47.778;17.806;2024-01-06T07:28:53;8.80;99.90
47168;DHT22;32931;47.778;17.806;2024-01-06T07:31:19;8.80;99.90
47168;DHT22;32931;47.778;17.806;2024-01-06T07:33:45;8.90;99.90
47168;DHT22;32931;47.778;17.806;2024-01-06T07:36:11;8.90;99.90
47168;DHT22;32931;47.778;17.806;2024-01-06T07:38:37;8.80;99.90
47168;DHT22;32931;47.778;17.806;2024-01-06T07:41:04;8.90;99.90
47168;DHT22;32931;47.778;17.806;2024-01-06T07:43:33;8.80;99.90
47168;DHT22;32931;47.778;17.806;2024-01-06T07:45:59;8.80;99.90
47168;DHT22;32931;47.778;17.806;2024-01-06T07:48:25;8.80;99.90
47168;DHT22;32931;47.778;17.806;2024-01-06T07:50:51;8.80;99.90
47168;DHT22;32931;47.778;17.806;2024-01-06T07:53:17;8.80;99.90
47168;DHT22;32931;47.778;17.806;2024-01-06T07:55:44;8.80;99.90
47168;DHT22;32931;47.778;17.806;2024-01-06T07:58:10;8.90;99.90
47168;DHT22;32931;47.778;17.806;2024-01-06T08:00:37;8.90;99.90
47168;DHT22;32931;47.778;17.806;2024-01-06T08:03:03;8.90;99.90
47168;DHT22;32931;47.778;17.806;2024-01-06T08:05:32;8.90;99.90
47168;DHT22;32931;47.778;17.806;2024-01-06T08:07:58;8.90;99.90
47168;DHT22;32931;47.778;17.806;2024-01-06T08:10:24;8.90;99.90
47168;DHT22;32931;47.778;17.806;2024-01-06T08:12:50;8.90;99.90
47168;DHT22;32931;47.778;17.806;2024-01-06T08:15:17;8.90;99.90
47168;DHT22;32931;47.778;17.806;2024-01-06T08:17:43;8.90;99.90
47168;DHT22;32931;47.778;17.806;2024-01-06T08:20:09;8.90;99.90
47168;DHT22;32931;47.778;17.806;2024-01-06T08:22:35;8.90;99.90
47168;DHT22;32931;47.778;17.806;2024-01-06T08:25:01;8.90;99.90
47168;DHT22;32931;47.778;17.806;2024-01-06T08:27:28;8.90;99.90
47168;DHT22;32931;47.778;17.806;2024-01-06T08:29:54;8.90;99.90
47168;DHT22;32931;47.778;17.806;2024-01-06T08:32:20;8.90;99.90
47168;DHT22;32931;47.778;17.806;2024-01-06T08:34:46;8.90;99.90
47168;DHT22;32931;47.778;17.806;2024-01-06T08:37:13;8.90;99.90
47168;DHT22;32931;47.778;17.806;2024-01-06T08:39:40;8.90;99.90
47168;DHT22;32931;47.778;17.806;2024-01-06T08:42:07;8.90;99.90
47168;DHT22;32931;47.778;17.806;2024-01-06T08:44:33;8.90;99.90
47168;DHT22;32931;47.778;17.806;2024-01-06T08:46:59;8.90;99.90
47168;DHT22;32931;47.778;17.806;2024-01-06T08:49:25;8.90;99.90
47168;DHT22;32931;47.778;17.806;2024-01-06T08:51:52;9.00;99.90
47168;DHT22;32931;47.778;17.806;2024-01-06T08:54:18;9.00;99.90
47168;DHT22;32931;47.778;17.806;2024-01-06T08:56:44;9.00;99.90
47168;DHT22;32931;47.778;17.806;2024-01-06T08:59:10;9.00;99.90
47168;DHT22;32931;47.778;17.806;2024-01-06T09:01:36;9.00;99.90
47168;DHT22;32931;47.778;17.806;2024-01-06T09:04:03;9.00;99.90
47168;DHT22;32931;47.778;17.806;2024-01-06T09:06:30;9.00;99.90
47168;DHT22;32931;47.778;17.806;2024-01-06T09:08:57;9.00;99.90
47168;DHT22;32931;47.778;17.806;2024-01-06T09:11:23;9.00;99.90
47168;DHT22;32931;47.778;17.806;2024-01-06T09:13:49;9.00;99.90
47168;DHT22;32931;47.778;17.806;2024-01-06T09:16:19;9.00;99.90
47168;DHT22;32931;47.778;17.806;2024-01-06T09:18:45;8.90;99.90
47168;DHT22;32931;47.778;17.806;2024-01-06T09:21:11;9.00;99.90
47168;DHT22;32931;47.778;17.806;2024-01-06T09:23:37;9.00;99.90
47168;DHT22;32931;47.778;17.806;2024-01-06T09:26:03;9.00;99.90
47168;DHT22;32931;47.778;17.806;2024-01-06T09:28:29;9.00;99.90
47168;DHT22;32931;47.778;17.806;2024-01-06T09:30:56;9.00;99.90
47168;DHT22;32931;47.778;17.806;2024-01-06T09:33:22;9.00;99.90
47168;DHT22;32931;47.778;17.806;2024-01-06T09:35:49;9.00;99.90
47168;DHT22;32931;47.778;17.806;2024-01-06T09:38:16;9.00;99.90
47168;DHT22;32931;47.778;17.806;2024-01-06T09:40:44;9.00;99.90
47168;DHT22;32931;47.778;17.806;2024-01-06T09:43:11;9.00;99.90
47168;DHT22;32931;47.778;17.806;2024-01-06T09:45:40;9.10;99.90
47168;DHT22;32931;47.778;17.806;2024-01-06T09:48:13;9.10;99.90
47168;DHT22;32931;47.778;17.806;2024-01-06T09:50:43;9.00;99.90
47168;DHT22;32931;47.778;17.806;2024-01-06T09:53:13;9.10;99.90
47168;DHT22;32931;47.778;17.806;2024-01-06T09:55:39;9.10;99.90
47168;DHT22;32931;47.778;17.806;2024-01-06T09:58:07;9.10;99.90
47168;DHT22;32931;47.778;17.806;2024-01-06T10:00:34;9.10;99.90
47168;DHT22;32931;47.778;17.806;2024-01-06T10:03:00;9.10;99.90
47168;DHT22;32931;47.778;17.806;2024-01-06T10:05:27;9.10;99.90
47168;DHT22;32931;47.778;17.806;2024-01-06T10:07:53;9.10;99.90
47168;DHT22;32931;47.778;17.806;2024-01-06T10:10:19;9.20;99.90
47168;DHT22;32931;47.778;17.806;2024-01-06T10:12:45;9.20;99.90
47168;DHT22;32931;47.778;17.806;2024-01-06T10:15:12;9.20;99.90
47168;DHT22;32931;47.778;17.806;2024-01-06T10:17:39;9.20;99.90
47168;DHT22;32931;47.778;17.806;2024-01-06T10:20:10;9.20;99.90
47168;DHT22;32931;47.778;17.806;2024-01-06T10:22:38;9.20;99.90
47168;DHT22;32931;47.778;17.806;2024-01-06T10:25:09;9.30;99.90
47168;DHT22;32931;47.778;17.806;2024-01-06T10:27:38;9.30;99.90
47168;DHT22;32931;47.778;17.806;2024-01-06T10:30:09;9.30;99.90
47168;DHT22;32931;47.778;17.806;2024-01-06T10:32:36;9.30;99.90
47168;DHT22;32931;47.778;17.806;2024-01-06T10:35:03;9.40;99.90
47168;DHT22;32931;47.778;17.806;2024-01-06T10:37:31;9.40;99.90
47168;DHT22;32931;47.778;17.806;2024-01-06T10:42:33;9.40;99.90
47168;DHT22;32931;47.778;17.806;2024-01-06T10:45:00;9.40;99.90
47168;DHT22;32931;47.778;17.806;2024-01-06T10:47:27;9.50;99.90
47168;DHT22;32931;47.778;17.806;2024-01-06T10:49:59;9.50;99.90
47168;DHT22;32931;47.778;17.806;2024-01-06T10:52:27;9.60;99.90
47168;DHT22;32931;47.778;17.806;2024-01-06T10:54:57;9.60;99.90
47168;DHT22;32931;47.778;17.806;2024-01-06T10:57:23;9.60;99.90
47168;DHT22;32931;47.778;17.806;2024-01-06T10:59:51;9.60;99.90
47168;DHT22;32931;47.778;17.806;2024-01-06T11:02:18;9.60;99.90
47168;DHT22;32931;47.778;17.806;2024-01-06T11:04:46;9.60;99.90
47168;DHT22;32931;47.778;17.806;2024-01-06T11:07:13;9.60;99.90
47168;DHT22;32931;47.778;17.806;2024-01-06T11:09:49;9.60;99.90
47168;DHT22;32931;47.778;17.806;2024-01-06T11:12:17;9.60;99.90
47168;DHT22;32931;47.778;17.806;2024-01-06T11:14:44;9.60;99.90
47168;DHT22;32931;47.778;17.806;2024-01-06T11:17:11;9.70;99.90
47168;DHT22;32931;47.778;17.806;2024-01-06T11:24:53;9.60;99.90
47168;DHT22;32931;47.778;17.806;2024-01-06T11:27:21;9.60;99.90
47168;DHT22;32931;47.778;17.806;2024-01-06T11:29:51;9.60;99.90
47168;DHT22;32931;47.778;17.806;2024-01-06T11:32:40;9.70;99.90
47168;DHT22;32931;47.778;17.806;2024-01-06T11:35:10;9.60;99.90
47168;DHT22;32931;47.778;17.806;2024-01-06T11:40:22;9.60;99.90
47168;DHT22;32931;47.778;17.806;2024-01-06T11:45:30;9.60;99.90
47168;DHT22;32931;47.778;17.806;2024-01-06T11:48:02;9.60;99.90
47168;DHT22;32931;47.778;17.806;2024-01-06T11:50:33;9.60;99.90
47168;DHT22;32931;47.778;17.806;2024-01-06T11:53:00;9.60;99.90
47168;DHT22;32931;47.778;17.806;2024-01-06T11:55:27;9.60;99.90
47168;DHT22;32931;47.778;17.806;2024-01-06T11:58:00;9.60;99.90
47168;DHT22;32931;47.778;17.806;2024-01-06T12:00:30;9.60;99.90
47168;DHT22;32931;47.778;17.806;2024-01-06T12:03:00;9.60;99.90
47168;DHT22;32931;47.778;17.806;2024-01-06T12:05:27;9.60;99.90
47168;DHT22;32931;47.778;17.806;2024-01-06T12:07:59;9.60;99.90
47168;DHT22;32931;47.778;17.806;2024-01-06T12:10:28;9.60;99.90
47168;DHT22;32931;47.778;17.806;2024-01-06T12:13:05;9.60;99.90
47168;DHT22;32931;47.778;17.806;2024-01-06T12:15:34;9.60;99.90
47168;DHT22;32931;47.778;17.806;2024-01-06T12:18:03;9.60;99.90
47168;DHT22;32931;47.778;17.806;2024-01-06T12:20:29;9.60;99.90
47168;DHT22;32931;47.778;17.806;2024-01-06T12:22:56;9.60;99.90
47168;DHT22;32931;47.778;17.806;2024-01-06T12:25:24;9.70;99.90
47168;DHT22;32931;47.778;17.806;2024-01-06T12:27:51;9.60;99.90
47168;DHT22;32931;47.778;17.806;2024-01-06T12:30:21;9.60;99.90
47168;DHT22;32931;47.778;17.806;2024-01-06T12:32:48;9.70;99.90
47168;DHT22;32931;47.778;17.806;2024-01-06T12:35:15;9.70;99.90
47168;DHT22;32931;47.778;17.806;2024-01-06T12:37:42;9.60;99.90
47168;DHT22;32931;47.778;17.806;2024-01-06T12:40:10;9.60;99.90
47168;DHT22;32931;47.778;17.806;2024-01-06T12:42:36;9.60;99.90
47168;DHT22;32931;47.778;17.806;2024-01-06T12:45:02;9.60;99.90
47168;DHT22;32931;47.778;17.806;2024-01-06T12:47:32;9.60;99.90
47168;DHT22;32931;47.778;17.806;2024-01-06T12:49:58;9.60;99.90
47168;DHT22;32931;47.778;17.806;2024-01-06T12:52:24;9.60;99.90
47168;DHT22;32931;47.778;17.806;2024-01-06T12:54:51;9.50;99.90
47168;DHT22;32931;47.778;17.806;2024-01-06T12:57:18;9.50;99.90
47168;DHT22;32931;47.778;17.806;2024-01-06T12:59:44;9.50;99.90
47168;DHT22;32931;47.778;17.806;2024-01-06T13:02:10;9.50;99.90
47168;DHT22;32931;47.778;17.806;2024-01-06T13:04:36;9.50;99.90
47168;DHT22;32931;47.778;17.806;2024-01-06T13:07:02;9.40;99.90
47168;DHT22;32931;47.778;17.806;2024-01-06T13:09:29;9.40;99.90
47168;DHT22;32931;47.778;17.806;2024-01-06T13:11:55;9.40;99.90
47168;DHT22;32931;47.778;17.806;2024-01-06T13:14:27;9.40;99.90
47168;DHT22;32931;47.778;17.806;2024-01-06T13:16:53;9.40;99.90
47168;DHT22;32931;47.778;17.806;2024-01-06T13:19:19;9.40;99.90
47168;DHT22;32931;47.778;17.806;2024-01-06T13:21:46;9.40;99.90
47168;DHT22;32931;47.778;17.806;2024-01-06T13:24:12;9.40;99.90
47168;DHT22;32931;47.778;17.806;2024-01-06T13:26:38;9.40;99.90
47168;DHT22;32931;47.778;17.806;2024-01-06T13:29:04;9.30;99.90
47168;DHT22;32931;47.778;17.806;2024-01-06T13:31:31;9.30;99.90
47168;DHT22;32931;47.778;17.806;2024-01-06T13:33:57;9.40;99.90
47168;DHT22;32931;47.778;17.806;2024-01-06T13:36:23;9.30;99.90
47168;DHT22;32931;47.778;17.806;2024-01-06T13:38:50;9.40;99.90
47168;DHT22;32931;47.778;17.806;2024-01-06T13:41:16;9.40;99.90
47168;DHT22;32931;47.778;17.806;2024-01-06T13:43:42;9.40;99.90
47168;DHT22;32931;47.778;17.806;2024-01-06T13:46:10;9.40;99.90
47168;DHT22;32931;47.778;17.806;2024-01-06T13:48:37;9.40;99.90
47168;DHT22;32931;47.778;17.806;2024-01-06T13:51:03;9.30;99.90
47168;DHT22;32931;47.778;17.806;2024-01-06T13:53:29;9.30;99.90
47168;DHT22;32931;47.778;17.806;2024-01-06T13:55:56;9.30;99.90
47168;DHT22;32931;47.778;17.806;2024-01-06T13:58:22;9.30;99.90
47168;DHT22;32931;47.778;17.806;2024-01-06T14:00:48;9.30;99.90
47168;DHT22;32931;47.778;17.806;2024-01-06T14:03:14;9.20;99.90
47168;DHT22;32931;47.778;17.806;2024-01-06T14:05:41;9.30;99.90
47168;DHT22;32931;47.778;17.806;2024-01-06T14:08:07;9.30;99.90
47168;DHT22;32931;47.778;17.806;2024-01-06T14:10:33;9.30;99.90
47168;DHT22;32931;47.778;17.806;2024-01-06T14:12:59;9.20;99.90
47168;DHT22;32931;47.778;17.806;2024-01-06T14:15:25;9.30;99.90
47168;DHT22;32931;47.778;17.806;2024-01-06T14:17:52;9.30;99.90
47168;DHT22;32931;47.778;17.806;2024-01-06T14:20:19;9.30;99.90
47168;DHT22;32931;47.778;17.806;2024-01-06T14:22:46;9.20;99.90
47168;DHT22;32931;47.778;17.806;2024-01-06T14:25:13;9.30;99.90
47168;DHT22;32931;47.778;17.806;2024-01-06T14:27:39;9.20;99.90
47168;DHT22;32931;47.778;17.806;2024-01-06T14:30:06;9.20;99.90
47168;DHT22;32931;47.778;17.806;2024-01-06T14:32:36;9.20;99.90
47168;DHT22;32931;47.778;17.806;2024-01-06T14:35:06;9.20;99.90
47168;DHT22;32931;47.778;17.806;2024-01-06T14:37:33;9.20;99.90
47168;DHT22;32931;47.778;17.806;2024-01-06T14:39:59;9.20;99.90
47168;DHT22;32931;47.778;17.806;2024-01-06T14:42:31;9.20;99.90
47168;DHT22;32931;47.778;17.806;2024-01-06T14:44:58;9.20;99.90
47168;DHT22;32931;47.778;17.806;2024-01-06T14:47:25;9.20;99.90
47168;DHT22;32931;47.778;17.806;2024-01-06T14:49:51;9.10;99.90
47168;DHT22;32931;47.778;17.806;2024-01-06T14:52:17;9.10;99.90
47168;DHT22;32931;47.778;17.806;2024-01-06T14:54:44;9.10;99.90
47168;DHT22;32931;47.778;17.806;2024-01-06T14:57:10;9.10;99.90
47168;DHT22;32931;47.778;17.806;2024-01-06T14:59:36;9.10;99.90
47168;DHT22;32931;47.778;17.806;2024-01-06T15:02:06;9.10;99.90
47168;DHT22;32931;47.778;17.806;2024-01-06T15:04:33;9.10;99.90
47168;DHT22;32931;47.778;17.806;2024-01-06T15:06:59;9.00;99.90
47168;DHT22;32931;47.778;17.806;2024-01-06T15:09:26;9.10;99.90
47168;DHT22;32931;47.778;17.806;2024-01-06T15:11:54;9.10;99.90
47168;DHT22;32931;47.778;17.806;2024-01-06T15:14:20;9.00;99.90
47168;DHT22;32931;47.778;17.806;2024-01-06T15:16:46;9.00;99.90
47168;DHT22;32931;47.778;17.806;2024-01-06T15:19:12;9.00;99.90
47168;DHT22;32931;47.778;17.806;2024-01-06T15:21:38;9.00;99.90
47168;DHT22;32931;47.778;17.806;2024-01-06T15:24:04;9.00;99.90
47168;DHT22;32931;47.778;17.806;2024-01-06T15:26:31;9.00;99.90
47168;DHT22;32931;47.778;17.806;2024-01-06T15:28:57;9.00;99.90
47168;DHT22;32931;47.778;17.806;2024-01-06T15:31:27;9.00;99.90
47168;DHT22;32931;47.778;17.806;2024-01-06T15:33:53;9.00;99.90
47168;DHT22;32931;47.778;17.806;2024-01-06T15:36:20;9.00;99.90
47168;DHT22;32931;47.778;17.806;2024-01-06T15:38:46;9.00;99.90
47168;DHT22;32931;47.778;17.806;2024-01-06T15:41:12;9.00;99.90